sensor_id;sensor_type;location;lat;lon;timestamp;P1;durP1;ratioP1;P2;durP2;ratioP2
18378;SDS011;27025;51.986;5.984;2022-10-17T00:00:46;12.10;;;9.40;;
18378;SDS011;27025;51.986;5.984;2022-10-17T00:03:13;12.90;;;10.23;;
18378;SDS011;27025;51.986;5.984;2022-10-17T00:05:43;15.20;;;9.83;;
18378;SDS011;27025;51.986;5.984;2022-10-17T00:08:09;14.20;;;11.00;;
18378;SDS011;27025;51.986;5.984;2022-10-17T00:10:36;14.52;;;12.43;;
18378;SDS011;27025;51.986;5.984;2022-10-17T00:13:02;14.05;;;12.45;;
18378;SDS011;27025;51.986;5.984;2022-10-17T00:15:28;14.03;;;12.50;;
18378;SDS011;27025;51.986;5.984;2022-10-17T00:17:54;14.88;;;12.80;;
18378;SDS011;27025;51.986;5.984;2022-10-17T00:20:20;16.10;;;12.50;;
18378;SDS011;27025;51.986;5.984;2022-10-17T00:22:46;12.23;;;11.00;;
18378;SDS011;27025;51.986;5.984;2022-10-17T00:25:12;14.98;;;13.38;;
18378;SDS011;27025;51.986;5.984;2022-10-17T00:27:39;15.05;;;12.65;;
18378;SDS011;27025;51.986;5.984;2022-10-17T00:30:06;15.73;;;14.23;;
18378;SDS011;27025;51.986;5.984;2022-10-17T00:32:32;16.08;;;13.98;;
18378;SDS011;27025;51.986;5.984;2022-10-17T00:34:58;16.17;;;13.30;;
18378;SDS011;27025;51.986;5.984;2022-10-17T00:37:24;16.67;;;13.20;;
18378;SDS011;27025;51.986;5.984;2022-10-17T00:39:50;16.13;;;14.43;;
18378;SDS011;27025;51.986;5.984;2022-10-17T00:42:16;16.83;;;14.45;;
18378;SDS011;27025;51.986;5.984;2022-10-17T00:47:12;16.45;;;14.57;;
18378;SDS011;27025;51.986;5.984;2022-10-17T00:49:40;15.48;;;13.85;;
18378;SDS011;27025;51.986;5.984;2022-10-17T00:52:13;15.93;;;13.70;;
18378;SDS011;27025;51.986;5.984;2022-10-17T00:54:41;17.17;;;13.85;;
18378;SDS011;27025;51.986;5.984;2022-10-17T00:57:08;15.68;;;13.82;;
18378;SDS011;27025;51.986;5.984;2022-10-17T00:59:37;16.02;;;13.50;;
18378;SDS011;27025;51.986;5.984;2022-10-17T01:02:05;16.27;;;14.15;;
18378;SDS011;27025;51.986;5.984;2022-10-17T01:04:32;15.63;;;14.02;;
18378;SDS011;27025;51.986;5.984;2022-10-17T01:06:58;16.23;;;14.40;;
18378;SDS011;27025;51.986;5.984;2022-10-17T01:09:24;16.50;;;14.80;;
18378;SDS011;27025;51.986;5.984;2022-10-17T01:12:03;15.45;;;13.85;;
18378;SDS011;27025;51.986;5.984;2022-10-17T01:19:33;17.07;;;15.37;;
18378;SDS011;27025;51.986;5.984;2022-10-17T01:24:46;17.63;;;15.68;;
18378;SDS011;27025;51.986;5.984;2022-10-17T01:30:10;18.63;;;16.73;;
18378;SDS011;27025;51.986;5.984;2022-10-17T01:32:42;18.77;;;16.15;;
18378;SDS011;27025;51.986;5.984;2022-10-17T01:35:24;16.70;;;14.90;;
18378;SDS011;27025;51.986;5.984;2022-10-17T01:40:28;17.38;;;15.57;;
18378;SDS011;27025;51.986;5.984;2022-10-17T01:43:03;16.73;;;14.98;;
18378;SDS011;27025;51.986;5.984;2022-10-17T01:45:37;18.02;;;16.15;;
18378;SDS011;27025;51.986;5.984;2022-10-17T01:48:08;18.65;;;16.65;;
18378;SDS011;27025;51.986;5.984;2022-10-17T01:50:37;19.25;;;15.48;;
18378;SDS011;27025;51.986;5.984;2022-10-17T01:53:05;18.13;;;16.23;;
18378;SDS011;27025;51.986;5.984;2022-10-17T01:55:37;17.20;;;15.13;;
18378;SDS011;27025;51.986;5.984;2022-10-17T01:58:05;17.75;;;15.82;;
18378;SDS011;27025;51.986;5.984;2022-10-17T02:00:32;16.80;;;14.98;;
18378;SDS011;27025;51.986;5.984;2022-10-17T02:03:01;16.15;;;14.60;;
18378;SDS011;27025;51.986;5.984;2022-10-17T02:05:30;17.80;;;15.57;;
18378;SDS011;27025;51.986;5.984;2022-10-17T02:07:56;16.67;;;14.93;;
18378;SDS011;27025;51.986;5.984;2022-10-17T02:12:57;17.15;;;14.82;;
18378;SDS011;27025;51.986;5.984;2022-10-17T02:15:31;16.60;;;14.90;;
18378;SDS011;27025;51.986;5.984;2022-10-17T02:18:20;16.25;;;14.52;;
18378;SDS011;27025;51.986;5.984;2022-10-17T02:20:50;19.67;;;16.17;;
18378;SDS011;27025;51.986;5.984;2022-10-17T02:25:47;16.25;;;14.63;;
18378;SDS011;27025;51.986;5.984;2022-10-17T02:28:50;16.85;;;15.05;;
18378;SDS011;27025;51.986;5.984;2022-10-17T02:31:17;18.23;;;15.13;;
18378;SDS011;27025;51.986;5.984;2022-10-17T02:33:46;16.15;;;14.45;;
18378;SDS011;27025;51.986;5.984;2022-10-17T02:36:14;18.40;;;15.43;;
18378;SDS011;27025;51.986;5.984;2022-10-17T02:38:41;16.85;;;14.73;;
18378;SDS011;27025;51.986;5.984;2022-10-17T02:41:09;16.77;;;15.00;;
18378;SDS011;27025;51.986;5.984;2022-10-17T02:43:37;14.35;;;12.95;;
18378;SDS011;27025;51.986;5.984;2022-10-17T02:46:04;15.93;;;14.32;;
18378;SDS011;27025;51.986;5.984;2022-10-17T02:48:42;16.90;;;14.88;;
18378;SDS011;27025;51.986;5.984;2022-10-17T02:54:02;17.42;;;15.65;;
18378;SDS011;27025;51.986;5.984;2022-10-17T02:56:31;16.98;;;15.15;;
18378;SDS011;27025;51.986;5.984;2022-10-17T02:59:00;14.73;;;12.77;;
18378;SDS011;27025;51.986;5.984;2022-10-17T03:01:30;14.80;;;11.50;;
18378;SDS011;27025;51.986;5.984;2022-10-17T03:04:03;14.87;;;11.77;;
18378;SDS011;27025;51.986;5.984;2022-10-17T03:06:29;15.80;;;11.50;;
18378;SDS011;27025;51.986;5.984;2022-10-17T03:08:58;14.33;;;12.20;;
18378;SDS011;27025;51.986;5.984;2022-10-17T03:11:24;16.55;;;13.70;;
18378;SDS011;27025;51.986;5.984;2022-10-17T03:13:50;18.33;;;16.13;;
18378;SDS011;27025;51.986;5.984;2022-10-17T03:16:16;25.65;;;19.63;;
18378;SDS011;27025;51.986;5.984;2022-10-17T03:18:42;18.23;;;16.30;;
18378;SDS011;27025;51.986;5.984;2022-10-17T03:21:08;19.93;;;17.17;;
18378;SDS011;27025;51.986;5.984;2022-10-17T03:23:34;20.13;;;17.08;;
18378;SDS011;27025;51.986;5.984;2022-10-17T03:26:04;21.98;;;16.70;;
18378;SDS011;27025;51.986;5.984;2022-10-17T03:28:30;22.17;;;17.23;;
18378;SDS011;27025;51.986;5.984;2022-10-17T03:30:56;18.23;;;16.33;;
18378;SDS011;27025;51.986;5.984;2022-10-17T03:33:22;19.45;;;16.20;;
18378;SDS011;27025;51.986;5.984;2022-10-17T03:35:48;17.33;;;15.57;;
18378;SDS011;27025;51.986;5.984;2022-10-17T03:38:14;19.75;;;16.95;;
18378;SDS011;27025;51.986;5.984;2022-10-17T03:40:40;16.73;;;14.98;;
18378;SDS011;27025;51.986;5.984;2022-10-17T03:43:06;19.60;;;16.23;;
18378;SDS011;27025;51.986;5.984;2022-10-17T03:45:32;18.40;;;15.55;;
18378;SDS011;27025;51.986;5.984;2022-10-17T03:47:58;16.38;;;14.73;;
18378;SDS011;27025;51.986;5.984;2022-10-17T03:50:24;15.55;;;14.02;;
18378;SDS011;27025;51.986;5.984;2022-10-17T03:52:50;18.55;;;15.52;;
18378;SDS011;27025;51.986;5.984;2022-10-17T03:55:17;17.40;;;15.52;;
18378;SDS011;27025;51.986;5.984;2022-10-17T03:57:43;16.30;;;14.70;;
18378;SDS011;27025;51.986;5.984;2022-10-17T04:00:09;16.70;;;14.48;;
18378;SDS011;27025;51.986;5.984;2022-10-17T04:02:35;14.98;;;13.57;;
18378;SDS011;27025;51.986;5.984;2022-10-17T04:05:01;16.83;;;15.10;;
18378;SDS011;27025;51.986;5.984;2022-10-17T04:07:27;16.65;;;14.90;;
18378;SDS011;27025;51.986;5.984;2022-10-17T04:09:53;18.33;;;15.10;;
18378;SDS011;27025;51.986;5.984;2022-10-17T04:12:19;18.52;;;16.00;;
18378;SDS011;27025;51.986;5.984;2022-10-17T04:14:47;16.83;;;15.13;;
18378;SDS011;27025;51.986;5.984;2022-10-17T04:17:13;17.58;;;14.73;;
18378;SDS011;27025;51.986;5.984;2022-10-17T04:19:39;16.25;;;14.57;;
18378;SDS011;27025;51.986;5.984;2022-10-17T04:22:05;18.88;;;15.70;;
18378;SDS011;27025;51.986;5.984;2022-10-17T04:24:32;18.20;;;15.18;;
18378;SDS011;27025;51.986;5.984;2022-10-17T04:26:58;16.50;;;14.47;;
18378;SDS011;27025;51.986;5.984;2022-10-17T04:29:24;18.40;;;16.48;;
18378;SDS011;27025;51.986;5.984;2022-10-17T04:31:50;16.40;;;14.70;;
18378;SDS011;27025;51.986;5.984;2022-10-17T04:34:17;19.75;;;17.58;;
18378;SDS011;27025;51.986;5.984;2022-10-17T04:36:43;22.23;;;18.45;;
18378;SDS011;27025;51.986;5.984;2022-10-17T04:39:09;23.80;;;18.83;;
18378;SDS011;27025;51.986;5.984;2022-10-17T04:41:35;20.73;;;17.08;;
18378;SDS011;27025;51.986;5.984;2022-10-17T04:44:01;13.15;;;11.75;;
18378;SDS011;27025;51.986;5.984;2022-10-17T04:46:27;19.73;;;16.25;;
18378;SDS011;27025;51.986;5.984;2022-10-17T04:48:53;21.45;;;16.00;;
18378;SDS011;27025;51.986;5.984;2022-10-17T04:51:19;21.43;;;18.23;;
18378;SDS011;27025;51.986;5.984;2022-10-17T04:53:45;20.38;;;17.40;;
18378;SDS011;27025;51.986;5.984;2022-10-17T04:56:15;19.67;;;17.58;;
18378;SDS011;27025;51.986;5.984;2022-10-17T04:58:42;19.25;;;17.00;;
18378;SDS011;27025;51.986;5.984;2022-10-17T05:01:13;17.05;;;15.27;;
18378;SDS011;27025;51.986;5.984;2022-10-17T05:03:39;19.17;;;16.77;;
18378;SDS011;27025;51.986;5.984;2022-10-17T05:06:06;18.48;;;16.17;;
18378;SDS011;27025;51.986;5.984;2022-10-17T05:08:33;18.85;;;16.85;;
18378;SDS011;27025;51.986;5.984;2022-10-17T05:10:59;20.23;;;17.33;;
18378;SDS011;27025;51.986;5.984;2022-10-17T05:13:25;21.33;;;17.05;;
18378;SDS011;27025;51.986;5.984;2022-10-17T05:15:51;20.38;;;17.30;;
18378;SDS011;27025;51.986;5.984;2022-10-17T05:18:17;17.83;;;15.25;;
18378;SDS011;27025;51.986;5.984;2022-10-17T05:20:43;14.77;;;13.20;;
18378;SDS011;27025;51.986;5.984;2022-10-17T05:23:09;14.17;;;12.50;;
18378;SDS011;27025;51.986;5.984;2022-10-17T05:25:35;21.50;;;12.77;;
18378;SDS011;27025;51.986;5.984;2022-10-17T05:28:01;14.70;;;13.20;;
18378;SDS011;27025;51.986;5.984;2022-10-17T05:30:27;14.33;;;12.77;;
18378;SDS011;27025;51.986;5.984;2022-10-17T05:32:53;13.23;;;10.67;;
18378;SDS011;27025;51.986;5.984;2022-10-17T05:35:20;13.17;;;11.77;;
18378;SDS011;27025;51.986;5.984;2022-10-17T05:37:46;12.70;;;10.53;;
18378;SDS011;27025;51.986;5.984;2022-10-17T05:40:12;12.30;;;11.00;;
18378;SDS011;27025;51.986;5.984;2022-10-17T05:42:38;16.03;;;11.27;;
18378;SDS011;27025;51.986;5.984;2022-10-17T05:45:04;17.40;;;13.75;;
18378;SDS011;27025;51.986;5.984;2022-10-17T05:47:30;14.90;;;11.07;;
18378;SDS011;27025;51.986;5.984;2022-10-17T05:49:56;13.77;;;11.93;;
18378;SDS011;27025;51.986;5.984;2022-10-17T05:52:22;18.70;;;16.35;;
18378;SDS011;27025;51.986;5.984;2022-10-17T05:54:48;15.60;;;13.93;;
18378;SDS011;27025;51.986;5.984;2022-10-17T05:57:14;20.25;;;15.85;;
18378;SDS011;27025;51.986;5.984;2022-10-17T05:59:40;14.53;;;12.97;;
18378;SDS011;27025;51.986;5.984;2022-10-17T06:02:07;18.50;;;14.00;;
18378;SDS011;27025;51.986;5.984;2022-10-17T06:04:33;18.83;;;13.63;;
18378;SDS011;27025;51.986;5.984;2022-10-17T06:06:59;18.17;;;15.48;;
18378;SDS011;27025;51.986;5.984;2022-10-17T06:09:26;17.65;;;15.70;;
18378;SDS011;27025;51.986;5.984;2022-10-17T06:11:52;16.10;;;14.30;;
18378;SDS011;27025;51.986;5.984;2022-10-17T06:14:18;17.27;;;14.88;;
18378;SDS011;27025;51.986;5.984;2022-10-17T06:16:44;18.02;;;15.68;;
18378;SDS011;27025;51.986;5.984;2022-10-17T06:19:10;19.20;;;14.60;;
18378;SDS011;27025;51.986;5.984;2022-10-17T06:21:36;16.40;;;14.68;;
18378;SDS011;27025;51.986;5.984;2022-10-17T06:24:03;16.10;;;14.15;;
18378;SDS011;27025;51.986;5.984;2022-10-17T06:26:29;16.67;;;14.83;;
18378;SDS011;27025;51.986;5.984;2022-10-17T06:28:55;15.57;;;12.43;;
18378;SDS011;27025;51.986;5.984;2022-10-17T06:31:21;17.40;;;13.13;;
18378;SDS011;27025;51.986;5.984;2022-10-17T06:33:47;14.23;;;12.73;;
18378;SDS011;27025;51.986;5.984;2022-10-17T06:36:13;19.37;;;12.67;;
18378;SDS011;27025;51.986;5.984;2022-10-17T06:38:39;15.03;;;12.90;;
18378;SDS011;27025;51.986;5.984;2022-10-17T06:41:06;14.30;;;11.77;;
18378;SDS011;27025;51.986;5.984;2022-10-17T06:43:36;16.37;;;12.97;;
18378;SDS011;27025;51.986;5.984;2022-10-17T06:46:02;15.70;;;13.10;;
18378;SDS011;27025;51.986;5.984;2022-10-17T06:48:29;17.67;;;13.50;;
18378;SDS011;27025;51.986;5.984;2022-10-17T06:51:01;17.13;;;12.43;;
18378;SDS011;27025;51.986;5.984;2022-10-17T06:53:29;15.93;;;12.73;;
18378;SDS011;27025;51.986;5.984;2022-10-17T06:55:55;14.50;;;12.47;;
18378;SDS011;27025;51.986;5.984;2022-10-17T06:58:25;16.57;;;12.47;;
18378;SDS011;27025;51.986;5.984;2022-10-17T07:00:51;14.30;;;12.17;;
18378;SDS011;27025;51.986;5.984;2022-10-17T07:03:17;13.77;;;12.47;;
18378;SDS011;27025;51.986;5.984;2022-10-17T07:05:49;16.63;;;13.03;;
18378;SDS011;27025;51.986;5.984;2022-10-17T07:08:16;13.43;;;11.97;;
18378;SDS011;27025;51.986;5.984;2022-10-17T07:10:42;18.37;;;13.30;;
18378;SDS011;27025;51.986;5.984;2022-10-17T07:13:08;17.10;;;15.10;;
18378;SDS011;27025;51.986;5.984;2022-10-17T07:15:35;17.05;;;15.25;;
18378;SDS011;27025;51.986;5.984;2022-10-17T07:18:01;17.10;;;14.30;;
18378;SDS011;27025;51.986;5.984;2022-10-17T07:20:27;15.00;;;12.67;;
18378;SDS011;27025;51.986;5.984;2022-10-17T07:22:53;18.23;;;13.17;;
18378;SDS011;27025;51.986;5.984;2022-10-17T07:25:19;16.73;;;15.02;;
18378;SDS011;27025;51.986;5.984;2022-10-17T07:27:45;18.98;;;15.65;;
18378;SDS011;27025;51.986;5.984;2022-10-17T07:30:11;20.48;;;17.33;;
18378;SDS011;27025;51.986;5.984;2022-10-17T07:32:37;18.47;;;14.10;;
18378;SDS011;27025;51.986;5.984;2022-10-17T07:35:03;14.57;;;13.10;;
18378;SDS011;27025;51.986;5.984;2022-10-17T07:37:29;15.07;;;13.33;;
18378;SDS011;27025;51.986;5.984;2022-10-17T07:39:55;19.13;;;13.20;;
18378;SDS011;27025;51.986;5.984;2022-10-17T07:42:21;15.50;;;13.90;;
18378;SDS011;27025;51.986;5.984;2022-10-17T07:44:47;15.45;;;13.88;;
18378;SDS011;27025;51.986;5.984;2022-10-17T07:47:13;16.67;;;14.73;;
18378;SDS011;27025;51.986;5.984;2022-10-17T07:49:39;15.80;;;14.23;;
18378;SDS011;27025;51.986;5.984;2022-10-17T07:52:11;15.17;;;12.50;;
18378;SDS011;27025;51.986;5.984;2022-10-17T07:54:37;15.55;;;12.52;;
18378;SDS011;27025;51.986;5.984;2022-10-17T07:57:03;14.23;;;11.43;;
18378;SDS011;27025;51.986;5.984;2022-10-17T07:59:31;15.13;;;13.13;;
18378;SDS011;27025;51.986;5.984;2022-10-17T08:01:57;13.45;;;11.65;;
18378;SDS011;27025;51.986;5.984;2022-10-17T08:04:23;15.37;;;12.00;;
18378;SDS011;27025;51.986;5.984;2022-10-17T08:06:49;15.50;;;12.30;;
18378;SDS011;27025;51.986;5.984;2022-10-17T08:09:15;15.85;;;12.20;;
18378;SDS011;27025;51.986;5.984;2022-10-17T08:11:42;14.38;;;12.27;;
18378;SDS011;27025;51.986;5.984;2022-10-17T08:14:08;14.27;;;12.30;;
18378;SDS011;27025;51.986;5.984;2022-10-17T08:16:35;14.30;;;12.23;;
18378;SDS011;27025;51.986;5.984;2022-10-17T08:19:01;14.93;;;12.35;;
18378;SDS011;27025;51.986;5.984;2022-10-17T08:21:28;14.43;;;11.30;;
18378;SDS011;27025;51.986;5.984;2022-10-17T08:23:54;16.93;;;11.90;;
18378;SDS011;27025;51.986;5.984;2022-10-17T08:26:20;20.20;;;12.07;;
18378;SDS011;27025;51.986;5.984;2022-10-17T08:28:46;14.30;;;11.87;;
18378;SDS011;27025;51.986;5.984;2022-10-17T08:31:16;19.73;;;11.87;;
18378;SDS011;27025;51.986;5.984;2022-10-17T08:33:42;14.87;;;12.53;;
18378;SDS011;27025;51.986;5.984;2022-10-17T08:36:09;17.00;;;12.17;;
18378;SDS011;27025;51.986;5.984;2022-10-17T08:38:37;19.50;;;12.43;;
18378;SDS011;27025;51.986;5.984;2022-10-17T08:41:06;21.97;;;13.00;;
18378;SDS011;27025;51.986;5.984;2022-10-17T08:43:42;19.43;;;12.97;;
18378;SDS011;27025;51.986;5.984;2022-10-17T08:46:10;18.20;;;12.07;;
18378;SDS011;27025;51.986;5.984;2022-10-17T08:48:41;17.20;;;14.17;;
18378;SDS011;27025;51.986;5.984;2022-10-17T08:53:54;20.40;;;15.37;;
18378;SDS011;27025;51.986;5.984;2022-10-17T08:56:27;21.87;;;16.43;;
18378;SDS011;27025;51.986;5.984;2022-10-17T08:58:55;27.23;;;19.00;;
18378;SDS011;27025;51.986;5.984;2022-10-17T09:01:28;28.77;;;20.10;;
18378;SDS011;27025;51.986;5.984;2022-10-17T09:09:21;30.07;;;17.53;;
18378;SDS011;27025;51.986;5.984;2022-10-17T09:12:05;20.23;;;15.23;;
18378;SDS011;27025;51.986;5.984;2022-10-17T09:19:59;21.07;;;15.30;;
18378;SDS011;27025;51.986;5.984;2022-10-17T09:22:27;27.10;;;15.80;;
18378;SDS011;27025;51.986;5.984;2022-10-17T09:25:02;25.83;;;16.27;;
18378;SDS011;27025;51.986;5.984;2022-10-17T09:30:30;21.10;;;15.97;;
18378;SDS011;27025;51.986;5.984;2022-10-17T09:32:58;24.70;;;16.40;;
18378;SDS011;27025;51.986;5.984;2022-10-17T09:35:25;25.30;;;16.53;;
18378;SDS011;27025;51.986;5.984;2022-10-17T09:37:51;23.60;;;16.50;;
18378;SDS011;27025;51.986;5.984;2022-10-17T09:40:26;24.57;;;16.43;;
18378;SDS011;27025;51.986;5.984;2022-10-17T09:42:53;23.67;;;16.53;;
18378;SDS011;27025;51.986;5.984;2022-10-17T09:45:20;19.57;;;14.80;;
18378;SDS011;27025;51.986;5.984;2022-10-17T09:48:04;28.93;;;17.10;;
18378;SDS011;27025;51.986;5.984;2022-10-17T09:50:33;22.77;;;15.53;;
18378;SDS011;27025;51.986;5.984;2022-10-17T09:53:01;22.07;;;15.60;;
18378;SDS011;27025;51.986;5.984;2022-10-17T09:55:42;23.47;;;14.90;;
18378;SDS011;27025;51.986;5.984;2022-10-17T09:58:09;22.10;;;15.03;;
18378;SDS011;27025;51.986;5.984;2022-10-17T10:00:37;20.13;;;15.30;;
18378;SDS011;27025;51.986;5.984;2022-10-17T10:03:13;21.67;;;15.50;;
18378;SDS011;27025;51.986;5.984;2022-10-17T10:05:40;23.10;;;15.60;;
18378;SDS011;27025;51.986;5.984;2022-10-17T10:08:14;27.10;;;16.17;;
18378;SDS011;27025;51.986;5.984;2022-10-17T10:10:41;22.00;;;15.77;;
18378;SDS011;27025;51.986;5.984;2022-10-17T10:15:43;23.70;;;15.87;;
18378;SDS011;27025;51.986;5.984;2022-10-17T10:18:25;26.23;;;15.93;;
18378;SDS011;27025;51.986;5.984;2022-10-17T10:23:41;21.50;;;15.23;;
18378;SDS011;27025;51.986;5.984;2022-10-17T10:28:36;22.43;;;15.00;;
18378;SDS011;27025;51.986;5.984;2022-10-17T10:31:04;26.47;;;15.97;;
18378;SDS011;27025;51.986;5.984;2022-10-17T10:33:31;22.27;;;15.13;;
18378;SDS011;27025;51.986;5.984;2022-10-17T10:35:59;20.23;;;15.10;;
18378;SDS011;27025;51.986;5.984;2022-10-17T10:38:26;21.43;;;14.50;;
18378;SDS011;27025;51.986;5.984;2022-10-17T10:40:53;18.33;;;14.07;;
18378;SDS011;27025;51.986;5.984;2022-10-17T10:45:46;19.20;;;13.70;;
18378;SDS011;27025;51.986;5.984;2022-10-17T10:48:33;18.57;;;12.33;;
18378;SDS011;27025;51.986;5.984;2022-10-17T10:56:03;17.20;;;12.43;;
18378;SDS011;27025;51.986;5.984;2022-10-17T11:01:15;16.17;;;12.07;;
18378;SDS011;27025;51.986;5.984;2022-10-17T11:04:03;18.07;;;13.00;;
18378;SDS011;27025;51.986;5.984;2022-10-17T11:06:33;15.47;;;12.57;;
18378;SDS011;27025;51.986;5.984;2022-10-17T11:09:04;16.87;;;11.70;;
18378;SDS011;27025;51.986;5.984;2022-10-17T11:11:36;15.07;;;11.83;;
18378;SDS011;27025;51.986;5.984;2022-10-17T11:17:00;13.90;;;11.80;;
18378;SDS011;27025;51.986;5.984;2022-10-17T11:19:30;16.70;;;12.13;;
18378;SDS011;27025;51.986;5.984;2022-10-17T11:22:20;18.00;;;12.43;;
18378;SDS011;27025;51.986;5.984;2022-10-17T11:27:33;14.93;;;11.63;;
18378;SDS011;27025;51.986;5.984;2022-10-17T11:29:59;15.70;;;12.07;;
18378;SDS011;27025;51.986;5.984;2022-10-17T11:32:30;18.33;;;12.70;;
18378;SDS011;27025;51.986;5.984;2022-10-17T11:35:00;15.10;;;12.73;;
18378;SDS011;27025;51.986;5.984;2022-10-17T11:37:29;13.53;;;11.90;;
18378;SDS011;27025;51.986;5.984;2022-10-17T11:39:58;15.73;;;12.50;;
18378;SDS011;27025;51.986;5.984;2022-10-17T11:42:35;19.60;;;12.87;;
18378;SDS011;27025;51.986;5.984;2022-10-17T11:45:13;13.97;;;12.47;;
18378;SDS011;27025;51.986;5.984;2022-10-17T11:52:43;16.57;;;13.20;;
18378;SDS011;27025;51.986;5.984;2022-10-17T12:15:47;18.37;;;12.97;;
18378;SDS011;27025;51.986;5.984;2022-10-17T12:18:14;17.00;;;13.30;;
18378;SDS011;27025;51.986;5.984;2022-10-17T12:20:41;14.17;;;12.77;;
18378;SDS011;27025;51.986;5.984;2022-10-17T12:28:15;14.83;;;12.90;;
18378;SDS011;27025;51.986;5.984;2022-10-17T12:31:21;17.43;;;13.73;;
18378;SDS011;27025;51.986;5.984;2022-10-17T12:33:37;15.27;;;13.50;;
18378;SDS011;27025;51.986;5.984;2022-10-17T12:38:36;16.23;;;14.30;;
18378;SDS011;27025;51.986;5.984;2022-10-17T12:41:03;19.83;;;13.30;;
18378;SDS011;27025;51.986;5.984;2022-10-17T12:45:59;17.33;;;14.00;;
18378;SDS011;27025;51.986;5.984;2022-10-17T12:51:08;15.63;;;13.87;;
18378;SDS011;27025;51.986;5.984;2022-10-17T12:56:14;18.27;;;14.43;;
18378;SDS011;27025;51.986;5.984;2022-10-17T12:58:47;18.03;;;14.93;;
18378;SDS011;27025;51.986;5.984;2022-10-17T13:01:18;15.63;;;13.57;;
18378;SDS011;27025;51.986;5.984;2022-10-17T13:03:47;18.27;;;14.07;;
18378;SDS011;27025;51.986;5.984;2022-10-17T13:06:20;17.13;;;14.63;;
18378;SDS011;27025;51.986;5.984;2022-10-17T13:08:48;17.23;;;13.63;;
18378;SDS011;27025;51.986;5.984;2022-10-17T13:11:15;15.57;;;13.57;;
18378;SDS011;27025;51.986;5.984;2022-10-17T13:13:48;16.80;;;13.57;;
18378;SDS011;27025;51.986;5.984;2022-10-17T13:18:54;17.73;;;13.03;;
18378;SDS011;27025;51.986;5.984;2022-10-17T13:21:20;14.97;;;13.37;;
18378;SDS011;27025;51.986;5.984;2022-10-17T13:23:46;14.30;;;12.90;;
18378;SDS011;27025;51.986;5.984;2022-10-17T13:26:25;16.47;;;14.77;;
18378;SDS011;27025;51.986;5.984;2022-10-17T13:29:10;19.10;;;14.43;;
18378;SDS011;27025;51.986;5.984;2022-10-17T13:31:38;16.87;;;13.80;;
18378;SDS011;27025;51.986;5.984;2022-10-17T13:34:05;14.53;;;13.17;;
18378;SDS011;27025;51.986;5.984;2022-10-17T13:36:32;16.10;;;13.33;;
18378;SDS011;27025;51.986;5.984;2022-10-17T13:38:59;15.90;;;13.43;;
18378;SDS011;27025;51.986;5.984;2022-10-17T13:41:27;16.33;;;13.40;;
18378;SDS011;27025;51.986;5.984;2022-10-17T13:43:53;16.87;;;14.53;;
18378;SDS011;27025;51.986;5.984;2022-10-17T13:46:24;14.50;;;13.00;;
18378;SDS011;27025;51.986;5.984;2022-10-17T13:48:50;14.93;;;13.23;;
18378;SDS011;27025;51.986;5.984;2022-10-17T13:51:17;19.53;;;16.10;;
18378;SDS011;27025;51.986;5.984;2022-10-17T13:53:43;18.23;;;14.23;;
18378;SDS011;27025;51.986;5.984;2022-10-17T13:58:39;17.17;;;15.37;;
18378;SDS011;27025;51.986;5.984;2022-10-17T14:01:06;20.80;;;15.57;;
18378;SDS011;27025;51.986;5.984;2022-10-17T14:03:32;19.47;;;15.30;;
18378;SDS011;27025;51.986;5.984;2022-10-17T14:06:12;19.73;;;15.93;;
18378;SDS011;27025;51.986;5.984;2022-10-17T14:08:45;17.07;;;14.43;;
18378;SDS011;27025;51.986;5.984;2022-10-17T14:11:12;19.73;;;14.70;;
18378;SDS011;27025;51.986;5.984;2022-10-17T14:13:39;15.47;;;13.97;;
18378;SDS011;27025;51.986;5.984;2022-10-17T14:16:05;15.13;;;13.63;;
18378;SDS011;27025;51.986;5.984;2022-10-17T14:18:33;16.50;;;14.37;;
18378;SDS011;27025;51.986;5.984;2022-10-17T14:21:00;14.50;;;13.07;;
18378;SDS011;27025;51.986;5.984;2022-10-17T14:26:03;15.60;;;14.10;;
18378;SDS011;27025;51.986;5.984;2022-10-17T14:28:29;15.20;;;13.60;;
18378;SDS011;27025;51.986;5.984;2022-10-17T14:31:07;17.07;;;14.43;;
18378;SDS011;27025;51.986;5.984;2022-10-17T14:33:33;15.77;;;14.27;;
18378;SDS011;27025;51.986;5.984;2022-10-17T14:36:00;16.43;;;14.83;;
18378;SDS011;27025;51.986;5.984;2022-10-17T14:38:27;16.17;;;14.77;;
18378;SDS011;27025;51.986;5.984;2022-10-17T14:40:58;17.37;;;15.77;;
18378;SDS011;27025;51.986;5.984;2022-10-17T14:43:25;16.50;;;14.80;;
18378;SDS011;27025;51.986;5.984;2022-10-17T14:45:52;21.63;;;15.83;;
18378;SDS011;27025;51.986;5.984;2022-10-17T14:48:21;17.80;;;16.03;;
18378;SDS011;27025;51.986;5.984;2022-10-17T14:53:33;17.90;;;16.20;;
18378;SDS011;27025;51.986;5.984;2022-10-17T14:55:59;18.27;;;16.67;;
18378;SDS011;27025;51.986;5.984;2022-10-17T14:58:27;18.87;;;16.97;;
18378;SDS011;27025;51.986;5.984;2022-10-17T15:00:53;19.20;;;17.33;;
18378;SDS011;27025;51.986;5.984;2022-10-17T15:03:20;19.57;;;17.73;;
18378;SDS011;27025;51.986;5.984;2022-10-17T15:05:46;19.17;;;17.27;;
18378;SDS011;27025;51.986;5.984;2022-10-17T15:08:13;20.50;;;18.33;;
18378;SDS011;27025;51.986;5.984;2022-10-17T15:10:39;20.77;;;17.47;;
18378;SDS011;27025;51.986;5.984;2022-10-17T15:13:06;18.43;;;16.73;;
18378;SDS011;27025;51.986;5.984;2022-10-17T15:15:32;17.70;;;16.10;;
18378;SDS011;27025;51.986;5.984;2022-10-17T15:17:58;18.77;;;16.97;;
18378;SDS011;27025;51.986;5.984;2022-10-17T15:20:25;19.37;;;17.67;;
18378;SDS011;27025;51.986;5.984;2022-10-17T15:22:55;19.67;;;17.67;;
18378;SDS011;27025;51.986;5.984;2022-10-17T15:25:22;20.23;;;18.07;;
18378;SDS011;27025;51.986;5.984;2022-10-17T15:27:48;21.47;;;19.33;;
18378;SDS011;27025;51.986;5.984;2022-10-17T15:30:19;20.47;;;18.47;;
18378;SDS011;27025;51.986;5.984;2022-10-17T15:32:46;19.60;;;17.70;;
18378;SDS011;27025;51.986;5.984;2022-10-17T15:35:12;19.83;;;17.93;;
18378;SDS011;27025;51.986;5.984;2022-10-17T15:37:38;20.37;;;18.47;;
18378;SDS011;27025;51.986;5.984;2022-10-17T15:40:04;19.77;;;17.87;;
18378;SDS011;27025;51.986;5.984;2022-10-17T15:42:30;21.10;;;18.73;;
18378;SDS011;27025;51.986;5.984;2022-10-17T15:44:57;20.87;;;18.83;;
18378;SDS011;27025;51.986;5.984;2022-10-17T15:47:29;20.80;;;18.77;;
18378;SDS011;27025;51.986;5.984;2022-10-17T15:49:59;21.20;;;19.00;;
18378;SDS011;27025;51.986;5.984;2022-10-17T15:52:25;23.17;;;20.83;;
18378;SDS011;27025;51.986;5.984;2022-10-17T15:54:52;24.97;;;22.50;;
18378;SDS011;27025;51.986;5.984;2022-10-17T15:57:20;24.03;;;21.53;;
18378;SDS011;27025;51.986;5.984;2022-10-17T15:59:46;24.57;;;22.07;;
18378;SDS011;27025;51.986;5.984;2022-10-17T16:02:13;27.50;;;22.30;;
18378;SDS011;27025;51.986;5.984;2022-10-17T16:04:39;27.97;;;21.93;;
18378;SDS011;27025;51.986;5.984;2022-10-17T16:07:05;30.83;;;23.10;;
18378;SDS011;27025;51.986;5.984;2022-10-17T16:09:31;27.83;;;22.93;;
18378;SDS011;27025;51.986;5.984;2022-10-17T16:11:59;31.33;;;23.60;;
18378;SDS011;27025;51.986;5.984;2022-10-17T16:14:25;26.00;;;21.53;;
18378;SDS011;27025;51.986;5.984;2022-10-17T16:16:51;24.37;;;21.00;;
18378;SDS011;27025;51.986;5.984;2022-10-17T16:19:17;22.80;;;19.43;;
18378;SDS011;27025;51.986;5.984;2022-10-17T16:21:43;23.20;;;20.37;;